sensor_id;sensor_type;location;lat;lon;timestamp;P1;durP1;ratioP1;P2;durP2;ratioP2
12312;SDS011;6220;53.580;9.758;2024-03-02T00:02:00;13.63;;;12.20;;
12312;SDS011;6220;53.580;9.758;2024-03-02T00:04:26;16.77;;;12.80;;
12312;SDS011;6220;53.580;9.758;2024-03-02T00:06:54;16.87;;;12.77;;
12312;SDS011;6220;53.580;9.758;2024-03-02T00:09:20;14.97;;;12.03;;
12312;SDS011;6220;53.580;9.758;2024-03-02T00:11:45;14.07;;;11.43;;
12312;SDS011;6220;53.580;9.758;2024-03-02T00:14:10;15.57;;;12.43;;
12312;SDS011;6220;53.580;9.758;2024-03-02T00:16:36;18.30;;;12.93;;
12312;SDS011;6220;53.580;9.758;2024-03-02T00:19:02;16.93;;;12.60;;
12312;SDS011;6220;53.580;9.758;2024-03-02T00:21:29;15.90;;;13.20;;
12312;SDS011;6220;53.580;9.758;2024-03-02T00:23:55;14.83;;;12.30;;
12312;SDS011;6220;53.580;9.758;2024-03-02T00:26:20;16.60;;;13.17;;
12312;SDS011;6220;53.580;9.758;2024-03-02T00:28:45;15.57;;;12.87;;
12312;SDS011;6220;53.580;9.758;2024-03-02T00:31:11;16.63;;;13.07;;
12312;SDS011;6220;53.580;9.758;2024-03-02T00:33:47;16.23;;;13.07;;
12312;SDS011;6220;53.580;9.758;2024-03-02T00:36:14;18.60;;;12.90;;
12312;SDS011;6220;53.580;9.758;2024-03-02T00:38:47;15.47;;;12.53;;
12312;SDS011;6220;53.580;9.758;2024-03-02T00:41:23;16.53;;;13.50;;
12312;SDS011;6220;53.580;9.758;2024-03-02T00:46:29;16.30;;;13.03;;
12312;SDS011;6220;53.580;9.758;2024-03-02T00:48:59;16.70;;;13.67;;
12312;SDS011;6220;53.580;9.758;2024-03-02T00:51:26;16.17;;;13.17;;
12312;SDS011;6220;53.580;9.758;2024-03-02T00:53:53;16.73;;;13.77;;
12312;SDS011;6220;53.580;9.758;2024-03-02T00:56:22;14.43;;;12.57;;
12312;SDS011;6220;53.580;9.758;2024-03-02T00:58:48;17.30;;;14.23;;
12312;SDS011;6220;53.580;9.758;2024-03-02T01:01:14;18.27;;;13.87;;
12312;SDS011;6220;53.580;9.758;2024-03-02T01:03:41;20.83;;;14.13;;
12312;SDS011;6220;53.580;9.758;2024-03-02T01:06:06;15.87;;;13.40;;
12312;SDS011;6220;53.580;9.758;2024-03-02T01:08:32;18.77;;;14.73;;
12312;SDS011;6220;53.580;9.758;2024-03-02T01:10:58;17.27;;;14.33;;
12312;SDS011;6220;53.580;9.758;2024-03-02T01:13:23;17.80;;;14.17;;
12312;SDS011;6220;53.580;9.758;2024-03-02T01:15:49;17.80;;;14.10;;
12312;SDS011;6220;53.580;9.758;2024-03-02T01:18:14;18.23;;;14.57;;
12312;SDS011;6220;53.580;9.758;2024-03-02T01:20:39;20.77;;;15.93;;
12312;SDS011;6220;53.580;9.758;2024-03-02T01:23:05;21.50;;;15.83;;
12312;SDS011;6220;53.580;9.758;2024-03-02T01:25:30;18.93;;;15.60;;
12312;SDS011;6220;53.580;9.758;2024-03-02T01:27:56;19.70;;;15.57;;
12312;SDS011;6220;53.580;9.758;2024-03-02T01:30:21;24.87;;;16.20;;
12312;SDS011;6220;53.580;9.758;2024-03-02T01:32:46;24.03;;;15.87;;
12312;SDS011;6220;53.580;9.758;2024-03-02T01:35:12;23.43;;;16.97;;
12312;SDS011;6220;53.580;9.758;2024-03-02T01:37:37;20.47;;;16.30;;
12312;SDS011;6220;53.580;9.758;2024-03-02T01:40:03;23.73;;;17.40;;
12312;SDS011;6220;53.580;9.758;2024-03-02T01:42:33;20.90;;;16.60;;
12312;SDS011;6220;53.580;9.758;2024-03-02T01:45:00;22.27;;;16.67;;
12312;SDS011;6220;53.580;9.758;2024-03-02T01:47:26;22.57;;;17.53;;
12312;SDS011;6220;53.580;9.758;2024-03-02T01:49:51;26.93;;;16.73;;
12312;SDS011;6220;53.580;9.758;2024-03-02T01:52:16;21.57;;;16.57;;
12312;SDS011;6220;53.580;9.758;2024-03-02T01:54:41;22.10;;;17.00;;
12312;SDS011;6220;53.580;9.758;2024-03-02T01:57:07;22.47;;;17.27;;
12312;SDS011;6220;53.580;9.758;2024-03-02T01:59:32;22.50;;;17.67;;
12312;SDS011;6220;53.580;9.758;2024-03-02T02:01:58;22.10;;;17.33;;
12312;SDS011;6220;53.580;9.758;2024-03-02T02:04:24;21.07;;;16.67;;
12312;SDS011;6220;53.580;9.758;2024-03-02T02:06:52;24.23;;;18.10;;
12312;SDS011;6220;53.580;9.758;2024-03-02T02:09:18;25.03;;;19.07;;
12312;SDS011;6220;53.580;9.758;2024-03-02T02:11:44;28.37;;;18.73;;
12312;SDS011;6220;53.580;9.758;2024-03-02T02:14:09;22.40;;;17.33;;
12312;SDS011;6220;53.580;9.758;2024-03-02T02:16:35;21.70;;;16.97;;
12312;SDS011;6220;53.580;9.758;2024-03-02T02:19:01;22.67;;;17.93;;
12312;SDS011;6220;53.580;9.758;2024-03-02T02:21:26;24.97;;;18.50;;
12312;SDS011;6220;53.580;9.758;2024-03-02T02:23:52;21.17;;;17.60;;
12312;SDS011;6220;53.580;9.758;2024-03-02T02:26:17;22.57;;;17.80;;
12312;SDS011;6220;53.580;9.758;2024-03-02T02:28:43;24.10;;;17.17;;
12312;SDS011;6220;53.580;9.758;2024-03-02T02:31:12;21.77;;;16.57;;
12312;SDS011;6220;53.580;9.758;2024-03-02T02:33:41;19.00;;;16.27;;
12312;SDS011;6220;53.580;9.758;2024-03-02T02:36:06;24.73;;;16.70;;
12312;SDS011;6220;53.580;9.758;2024-03-02T02:38:37;18.60;;;16.17;;
12312;SDS011;6220;53.580;9.758;2024-03-02T02:41:04;18.80;;;15.93;;
12312;SDS011;6220;53.580;9.758;2024-03-02T02:43:30;21.40;;;16.33;;
12312;SDS011;6220;53.580;9.758;2024-03-02T02:45:55;19.97;;;15.10;;
12312;SDS011;6220;53.580;9.758;2024-03-02T02:48:20;19.77;;;15.37;;
12312;SDS011;6220;53.580;9.758;2024-03-02T02:50:46;21.60;;;16.17;;
12312;SDS011;6220;53.580;9.758;2024-03-02T02:53:11;19.40;;;16.07;;
12312;SDS011;6220;53.580;9.758;2024-03-02T02:55:36;25.97;;;16.60;;
12312;SDS011;6220;53.580;9.758;2024-03-02T02:58:05;20.50;;;16.27;;
12312;SDS011;6220;53.580;9.758;2024-03-02T03:00:31;22.17;;;16.40;;
12312;SDS011;6220;53.580;9.758;2024-03-02T03:02:56;19.57;;;16.30;;
12312;SDS011;6220;53.580;9.758;2024-03-02T03:05:22;21.93;;;16.80;;
12312;SDS011;6220;53.580;9.758;2024-03-02T03:07:47;22.27;;;17.07;;
12312;SDS011;6220;53.580;9.758;2024-03-02T03:10:14;19.50;;;15.73;;
12312;SDS011;6220;53.580;9.758;2024-03-02T03:12:40;21.67;;;17.10;;
12312;SDS011;6220;53.580;9.758;2024-03-02T03:15:07;24.30;;;16.70;;
12312;SDS011;6220;53.580;9.758;2024-03-02T03:17:33;22.40;;;17.13;;
12312;SDS011;6220;53.580;9.758;2024-03-02T03:19:59;24.50;;;16.87;;
12312;SDS011;6220;53.580;9.758;2024-03-02T03:22:25;23.43;;;17.53;;
12312;SDS011;6220;53.580;9.758;2024-03-02T03:24:51;25.20;;;18.40;;
12312;SDS011;6220;53.580;9.758;2024-03-02T03:27:16;21.97;;;17.27;;
12312;SDS011;6220;53.580;9.758;2024-03-02T03:29:41;22.67;;;16.33;;
12312;SDS011;6220;53.580;9.758;2024-03-02T03:32:07;22.17;;;17.83;;
12312;SDS011;6220;53.580;9.758;2024-03-02T03:34:33;21.17;;;17.40;;
12312;SDS011;6220;53.580;9.758;2024-03-02T03:36:58;23.73;;;17.70;;
12312;SDS011;6220;53.580;9.758;2024-03-02T03:39:24;29.60;;;18.43;;
12312;SDS011;6220;53.580;9.758;2024-03-02T03:41:49;25.50;;;18.00;;
12312;SDS011;6220;53.580;9.758;2024-03-02T03:44:14;23.37;;;18.50;;
12312;SDS011;6220;53.580;9.758;2024-03-02T03:46:40;24.23;;;18.93;;
12312;SDS011;6220;53.580;9.758;2024-03-02T03:49:05;27.10;;;19.27;;
12312;SDS011;6220;53.580;9.758;2024-03-02T03:51:30;23.60;;;19.00;;
12312;SDS011;6220;53.580;9.758;2024-03-02T03:53:56;22.13;;;17.57;;
12312;SDS011;6220;53.580;9.758;2024-03-02T03:56:21;22.57;;;17.97;;
12312;SDS011;6220;53.580;9.758;2024-03-02T03:58:46;23.33;;;17.93;;
12312;SDS011;6220;53.580;9.758;2024-03-02T04:01:12;24.20;;;18.53;;
12312;SDS011;6220;53.580;9.758;2024-03-02T04:03:38;24.87;;;18.87;;
12312;SDS011;6220;53.580;9.758;2024-03-02T04:06:03;24.80;;;18.30;;
12312;SDS011;6220;53.580;9.758;2024-03-02T04:08:29;27.57;;;18.93;;
12312;SDS011;6220;53.580;9.758;2024-03-02T04:10:54;24.27;;;18.37;;
12312;SDS011;6220;53.580;9.758;2024-03-02T04:13:19;23.47;;;18.40;;
12312;SDS011;6220;53.580;9.758;2024-03-02T04:15:45;22.67;;;17.40;;
12312;SDS011;6220;53.580;9.758;2024-03-02T04:18:10;26.53;;;18.57;;
12312;SDS011;6220;53.580;9.758;2024-03-02T04:20:36;22.20;;;18.27;;
12312;SDS011;6220;53.580;9.758;2024-03-02T04:23:01;25.63;;;19.10;;
12312;SDS011;6220;53.580;9.758;2024-03-02T04:25:27;28.73;;;20.03;;
12312;SDS011;6220;53.580;9.758;2024-03-02T04:27:52;24.10;;;19.00;;
12312;SDS011;6220;53.580;9.758;2024-03-02T04:30:18;26.93;;;19.50;;
12312;SDS011;6220;53.580;9.758;2024-03-02T04:32:43;25.80;;;19.60;;
12312;SDS011;6220;53.580;9.758;2024-03-02T04:35:11;29.47;;;20.10;;
12312;SDS011;6220;53.580;9.758;2024-03-02T04:37:37;26.23;;;21.40;;
12312;SDS011;6220;53.580;9.758;2024-03-02T04:40:03;24.67;;;19.07;;
12312;SDS011;6220;53.580;9.758;2024-03-02T04:42:28;26.80;;;20.03;;
12312;SDS011;6220;53.580;9.758;2024-03-02T04:44:53;26.57;;;20.33;;
12312;SDS011;6220;53.580;9.758;2024-03-02T04:47:19;26.30;;;19.07;;
12312;SDS011;6220;53.580;9.758;2024-03-02T04:49:44;26.90;;;18.97;;
12312;SDS011;6220;53.580;9.758;2024-03-02T04:52:10;25.40;;;20.47;;
12312;SDS011;6220;53.580;9.758;2024-03-02T04:54:35;28.03;;;19.87;;
12312;SDS011;6220;53.580;9.758;2024-03-02T04:57:20;26.13;;;19.90;;
12312;SDS011;6220;53.580;9.758;2024-03-02T04:59:46;26.13;;;19.37;;
12312;SDS011;6220;53.580;9.758;2024-03-02T05:02:11;25.00;;;19.03;;
12312;SDS011;6220;53.580;9.758;2024-03-02T05:04:39;24.67;;;19.30;;
12312;SDS011;6220;53.580;9.758;2024-03-02T05:07:04;26.03;;;20.30;;
12312;SDS011;6220;53.580;9.758;2024-03-02T05:09:30;24.97;;;19.70;;
12312;SDS011;6220;53.580;9.758;2024-03-02T05:11:55;25.40;;;18.27;;
12312;SDS011;6220;53.580;9.758;2024-03-02T05:14:38;24.93;;;18.83;;
12312;SDS011;6220;53.580;9.758;2024-03-02T05:17:04;24.47;;;19.07;;
12312;SDS011;6220;53.580;9.758;2024-03-02T05:19:29;26.17;;;19.13;;
12312;SDS011;6220;53.580;9.758;2024-03-02T05:21:54;24.40;;;19.90;;
12312;SDS011;6220;53.580;9.758;2024-03-02T05:24:20;27.73;;;19.80;;
12312;SDS011;6220;53.580;9.758;2024-03-02T05:26:45;24.33;;;19.03;;
12312;SDS011;6220;53.580;9.758;2024-03-02T05:29:10;25.97;;;19.67;;
12312;SDS011;6220;53.580;9.758;2024-03-02T05:31:36;23.13;;;18.37;;
12312;SDS011;6220;53.580;9.758;2024-03-02T05:34:01;22.57;;;18.33;;
12312;SDS011;6220;53.580;9.758;2024-03-02T05:36:27;24.57;;;18.87;;
12312;SDS011;6220;53.580;9.758;2024-03-02T05:38:53;22.50;;;18.03;;
12312;SDS011;6220;53.580;9.758;2024-03-02T05:41:18;25.73;;;19.27;;
12312;SDS011;6220;53.580;9.758;2024-03-02T05:43:43;25.60;;;18.57;;
12312;SDS011;6220;53.580;9.758;2024-03-02T05:46:09;23.83;;;18.17;;
12312;SDS011;6220;53.580;9.758;2024-03-02T05:48:34;24.53;;;19.00;;
12312;SDS011;6220;53.580;9.758;2024-03-02T05:50:59;24.50;;;18.30;;
12312;SDS011;6220;53.580;9.758;2024-03-02T05:53:25;25.47;;;19.10;;
12312;SDS011;6220;53.580;9.758;2024-03-02T05:55:50;25.77;;;18.30;;
12312;SDS011;6220;53.580;9.758;2024-03-02T05:58:20;26.00;;;19.10;;
12312;SDS011;6220;53.580;9.758;2024-03-02T06:00:57;27.93;;;20.00;;
12312;SDS011;6220;53.580;9.758;2024-03-02T06:03:23;23.27;;;17.57;;
12312;SDS011;6220;53.580;9.758;2024-03-02T06:05:48;24.40;;;19.10;;
12312;SDS011;6220;53.580;9.758;2024-03-02T06:08:14;23.83;;;18.40;;
12312;SDS011;6220;53.580;9.758;2024-03-02T06:10:39;23.90;;;18.40;;
12312;SDS011;6220;53.580;9.758;2024-03-02T06:13:05;25.67;;;18.57;;
12312;SDS011;6220;53.580;9.758;2024-03-02T06:15:30;24.20;;;18.43;;
12312;SDS011;6220;53.580;9.758;2024-03-02T06:17:56;25.17;;;18.40;;
12312;SDS011;6220;53.580;9.758;2024-03-02T06:20:21;25.37;;;19.03;;
12312;SDS011;6220;53.580;9.758;2024-03-02T06:22:47;26.80;;;19.13;;
12312;SDS011;6220;53.580;9.758;2024-03-02T06:25:12;23.40;;;18.40;;
12312;SDS011;6220;53.580;9.758;2024-03-02T06:27:38;23.43;;;18.23;;
12312;SDS011;6220;53.580;9.758;2024-03-02T06:30:04;23.73;;;18.27;;
12312;SDS011;6220;53.580;9.758;2024-03-02T06:32:29;25.63;;;18.00;;
12312;SDS011;6220;53.580;9.758;2024-03-02T06:34:55;22.50;;;16.97;;
12312;SDS011;6220;53.580;9.758;2024-03-02T06:37:20;24.23;;;17.83;;
12312;SDS011;6220;53.580;9.758;2024-03-02T06:39:45;22.80;;;17.80;;
12312;SDS011;6220;53.580;9.758;2024-03-02T06:42:11;20.73;;;16.00;;
12312;SDS011;6220;53.580;9.758;2024-03-02T06:44:36;21.13;;;16.73;;
12312;SDS011;6220;53.580;9.758;2024-03-02T06:47:01;23.10;;;17.07;;
12312;SDS011;6220;53.580;9.758;2024-03-02T06:49:26;21.37;;;16.53;;
12312;SDS011;6220;53.580;9.758;2024-03-02T06:51:52;21.90;;;15.97;;
12312;SDS011;6220;53.580;9.758;2024-03-02T06:54:17;21.00;;;16.33;;
12312;SDS011;6220;53.580;9.758;2024-03-02T06:56:42;23.30;;;17.13;;
12312;SDS011;6220;53.580;9.758;2024-03-02T06:59:08;27.67;;;18.20;;
12312;SDS011;6220;53.580;9.758;2024-03-02T07:01:33;22.67;;;17.23;;
12312;SDS011;6220;53.580;9.758;2024-03-02T07:03:59;23.40;;;18.17;;
12312;SDS011;6220;53.580;9.758;2024-03-02T07:06:24;24.23;;;17.27;;
12312;SDS011;6220;53.580;9.758;2024-03-02T07:08:50;24.50;;;18.57;;
12312;SDS011;6220;53.580;9.758;2024-03-02T07:11:15;22.80;;;18.07;;
12312;SDS011;6220;53.580;9.758;2024-03-02T07:13:41;25.60;;;19.07;;
12312;SDS011;6220;53.580;9.758;2024-03-02T07:16:06;24.97;;;18.73;;
12312;SDS011;6220;53.580;9.758;2024-03-02T07:18:51;24.97;;;18.37;;
12312;SDS011;6220;53.580;9.758;2024-03-02T07:21:17;23.87;;;18.20;;
12312;SDS011;6220;53.580;9.758;2024-03-02T07:23:43;24.40;;;18.33;;
12312;SDS011;6220;53.580;9.758;2024-03-02T07:26:08;21.97;;;16.90;;
12312;SDS011;6220;53.580;9.758;2024-03-02T07:28:33;23.67;;;17.43;;
12312;SDS011;6220;53.580;9.758;2024-03-02T07:31:03;23.73;;;16.90;;
12312;SDS011;6220;53.580;9.758;2024-03-02T07:33:29;22.43;;;17.63;;
12312;SDS011;6220;53.580;9.758;2024-03-02T07:35:55;21.60;;;17.20;;
12312;SDS011;6220;53.580;9.758;2024-03-02T07:38:20;19.63;;;16.27;;
12312;SDS011;6220;53.580;9.758;2024-03-02T07:40:47;19.03;;;15.60;;
12312;SDS011;6220;53.580;9.758;2024-03-02T07:43:15;23.13;;;16.77;;
12312;SDS011;6220;53.580;9.758;2024-03-02T07:45:41;22.17;;;16.50;;
12312;SDS011;6220;53.580;9.758;2024-03-02T07:48:06;20.50;;;16.00;;
12312;SDS011;6220;53.580;9.758;2024-03-02T07:50:32;22.87;;;17.30;;
12312;SDS011;6220;53.580;9.758;2024-03-02T07:53:00;22.43;;;16.97;;
12312;SDS011;6220;53.580;9.758;2024-03-02T07:55:25;20.87;;;16.63;;
12312;SDS011;6220;53.580;9.758;2024-03-02T07:57:51;19.50;;;15.70;;
12312;SDS011;6220;53.580;9.758;2024-03-02T08:00:16;21.97;;;15.97;;
12312;SDS011;6220;53.580;9.758;2024-03-02T08:02:41;20.77;;;15.80;;
12312;SDS011;6220;53.580;9.758;2024-03-02T08:05:07;20.10;;;15.83;;
12312;SDS011;6220;53.580;9.758;2024-03-02T08:07:33;21.60;;;16.20;;
12312;SDS011;6220;53.580;9.758;2024-03-02T08:09:58;20.40;;;15.33;;
12312;SDS011;6220;53.580;9.758;2024-03-02T08:12:23;21.87;;;15.60;;
12312;SDS011;6220;53.580;9.758;2024-03-02T08:14:49;21.47;;;15.90;;
12312;SDS011;6220;53.580;9.758;2024-03-02T08:17:14;20.50;;;16.00;;
12312;SDS011;6220;53.580;9.758;2024-03-02T08:19:39;21.30;;;15.83;;
12312;SDS011;6220;53.580;9.758;2024-03-02T08:22:05;19.57;;;15.83;;
12312;SDS011;6220;53.580;9.758;2024-03-02T08:24:31;19.63;;;16.00;;
12312;SDS011;6220;53.580;9.758;2024-03-02T08:26:56;17.97;;;14.63;;
12312;SDS011;6220;53.580;9.758;2024-03-02T08:29:22;20.20;;;15.83;;
12312;SDS011;6220;53.580;9.758;2024-03-02T08:31:48;18.63;;;15.43;;
12312;SDS011;6220;53.580;9.758;2024-03-02T08:34:14;19.93;;;15.37;;
12312;SDS011;6220;53.580;9.758;2024-03-02T08:36:39;19.47;;;15.70;;
12312;SDS011;6220;53.580;9.758;2024-03-02T08:39:06;21.67;;;15.67;;
12312;SDS011;6220;53.580;9.758;2024-03-02T08:41:40;19.57;;;15.60;;
12312;SDS011;6220;53.580;9.758;2024-03-02T08:44:14;22.03;;;15.67;;
12312;SDS011;6220;53.580;9.758;2024-03-02T08:46:40;19.07;;;14.40;;
12312;SDS011;6220;53.580;9.758;2024-03-02T08:49:05;20.00;;;15.50;;
12312;SDS011;6220;53.580;9.758;2024-03-02T08:51:32;19.60;;;15.57;;
12312;SDS011;6220;53.580;9.758;2024-03-02T08:53:58;21.47;;;15.33;;
12312;SDS011;6220;53.580;9.758;2024-03-02T08:56:23;21.10;;;15.80;;
12312;SDS011;6220;53.580;9.758;2024-03-02T08:58:49;19.83;;;15.33;;
12312;SDS011;6220;53.580;9.758;2024-03-02T09:01:15;22.60;;;16.77;;
12312;SDS011;6220;53.580;9.758;2024-03-02T09:03:41;20.50;;;15.77;;
12312;SDS011;6220;53.580;9.758;2024-03-02T09:06:09;18.43;;;14.30;;
12312;SDS011;6220;53.580;9.758;2024-03-02T09:08:35;19.70;;;16.37;;
12312;SDS011;6220;53.580;9.758;2024-03-02T09:11:01;20.07;;;15.30;;
12312;SDS011;6220;53.580;9.758;2024-03-02T09:13:27;19.67;;;15.30;;
12312;SDS011;6220;53.580;9.758;2024-03-02T09:15:53;17.80;;;14.30;;
12312;SDS011;6220;53.580;9.758;2024-03-02T09:18:18;19.90;;;15.60;;
12312;SDS011;6220;53.580;9.758;2024-03-02T09:20:43;18.37;;;14.37;;
12312;SDS011;6220;53.580;9.758;2024-03-02T09:23:09;17.43;;;13.73;;
12312;SDS011;6220;53.580;9.758;2024-03-02T09:25:34;19.07;;;15.33;;
12312;SDS011;6220;53.580;9.758;2024-03-02T09:27:59;17.53;;;14.07;;
12312;SDS011;6220;53.580;9.758;2024-03-02T09:30:25;20.77;;;15.07;;
12312;SDS011;6220;53.580;9.758;2024-03-02T09:32:50;20.70;;;14.97;;
12312;SDS011;6220;53.580;9.758;2024-03-02T09:35:15;18.77;;;14.43;;
12312;SDS011;6220;53.580;9.758;2024-03-02T09:37:41;17.40;;;14.00;;
12312;SDS011;6220;53.580;9.758;2024-03-02T09:40:06;15.93;;;13.47;;
12312;SDS011;6220;53.580;9.758;2024-03-02T09:42:32;16.33;;;13.47;;
12312;SDS011;6220;53.580;9.758;2024-03-02T09:44:57;18.33;;;13.60;;
12312;SDS011;6220;53.580;9.758;2024-03-02T09:47:24;17.83;;;13.70;;
12312;SDS011;6220;53.580;9.758;2024-03-02T09:49:49;18.57;;;13.90;;
12312;SDS011;6220;53.580;9.758;2024-03-02T09:52:14;16.80;;;13.20;;
12312;SDS011;6220;53.580;9.758;2024-03-02T09:54:41;18.03;;;13.50;;
12312;SDS011;6220;53.580;9.758;2024-03-02T09:57:06;17.40;;;12.73;;
12312;SDS011;6220;53.580;9.758;2024-03-02T09:59:32;18.53;;;13.17;;
12312;SDS011;6220;53.580;9.758;2024-03-02T10:04:26;15.63;;;12.70;;
12312;SDS011;6220;53.580;9.758;2024-03-02T10:07:09;16.40;;;12.50;;
12312;SDS011;6220;53.580;9.758;2024-03-02T10:09:41;16.47;;;12.17;;
12312;SDS011;6220;53.580;9.758;2024-03-02T10:12:08;12.47;;;10.33;;
12312;SDS011;6220;53.580;9.758;2024-03-02T10:14:34;14.00;;;11.03;;
12312;SDS011;6220;53.580;9.758;2024-03-02T10:17:03;13.43;;;11.63;;
12312;SDS011;6220;53.580;9.758;2024-03-02T10:19:30;15.03;;;11.37;;
12312;SDS011;6220;53.580;9.758;2024-03-02T10:21:58;14.13;;;11.03;;
12312;SDS011;6220;53.580;9.758;2024-03-02T10:24:24;13.40;;;11.20;;
12312;SDS011;6220;53.580;9.758;2024-03-02T10:26:50;15.23;;;10.63;;
12312;SDS011;6220;53.580;9.758;2024-03-02T10:29:15;12.87;;;10.33;;
12312;SDS011;6220;53.580;9.758;2024-03-02T10:31:42;15.07;;;10.47;;
12312;SDS011;6220;53.580;9.758;2024-03-02T10:34:09;12.47;;;10.90;;
12312;SDS011;6220;53.580;9.758;2024-03-02T10:36:35;14.03;;;10.93;;
12312;SDS011;6220;53.580;9.758;2024-03-02T10:39:04;16.67;;;10.70;;
12312;SDS011;6220;53.580;9.758;2024-03-02T10:41:32;13.43;;;10.27;;
12312;SDS011;6220;53.580;9.758;2024-03-02T10:43:58;14.97;;;10.70;;
12312;SDS011;6220;53.580;9.758;2024-03-02T10:46:28;15.17;;;10.20;;
12312;SDS011;6220;53.580;9.758;2024-03-02T10:48:54;11.70;;;10.07;;
12312;SDS011;6220;53.580;9.758;2024-03-02T10:51:20;15.30;;;11.13;;
12312;SDS011;6220;53.580;9.758;2024-03-02T10:53:45;15.30;;;9.80;;
12312;SDS011;6220;53.580;9.758;2024-03-02T10:56:11;14.97;;;9.80;;
12312;SDS011;6220;53.580;9.758;2024-03-02T10:58:41;13.50;;;10.10;;
12312;SDS011;6220;53.580;9.758;2024-03-02T11:01:06;12.77;;;10.27;;
12312;SDS011;6220;53.580;9.758;2024-03-02T11:03:36;11.17;;;9.10;;
12312;SDS011;6220;53.580;9.758;2024-03-02T11:06:05;10.37;;;9.17;;
12312;SDS011;6220;53.580;9.758;2024-03-02T11:08:32;12.00;;;9.70;;
12312;SDS011;6220;53.580;9.758;2024-03-02T11:11:01;12.30;;;9.70;;
12312;SDS011;6220;53.580;9.758;2024-03-02T11:13:32;11.73;;;9.30;;
12312;SDS011;6220;53.580;9.758;2024-03-02T11:16:43;11.70;;;9.53;;
12312;SDS011;6220;53.580;9.758;2024-03-02T11:18:49;13.43;;;10.47;;
12312;SDS011;6220;53.580;9.758;2024-03-02T11:21:15;12.80;;;9.87;;
12312;SDS011;6220;53.580;9.758;2024-03-02T11:23:41;12.07;;;9.00;;
12312;SDS011;6220;53.580;9.758;2024-03-02T11:26:19;10.03;;;8.30;;
12312;SDS011;6220;53.580;9.758;2024-03-02T11:28:45;13.20;;;9.87;;
12312;SDS011;6220;53.580;9.758;2024-03-02T11:31:11;12.37;;;9.40;;
12312;SDS011;6220;53.580;9.758;2024-03-02T11:33:36;10.60;;;8.70;;
12312;SDS011;6220;53.580;9.758;2024-03-02T11:36:02;10.93;;;8.40;;
12312;SDS011;6220;53.580;9.758;2024-03-02T11:38:28;9.87;;;8.53;;
12312;SDS011;6220;53.580;9.758;2024-03-02T11:40:55;12.37;;;8.23;;
12312;SDS011;6220;53.580;9.758;2024-03-02T11:43:21;10.77;;;8.83;;
12312;SDS011;6220;53.580;9.758;2024-03-02T11:45:46;12.53;;;8.37;;
12312;SDS011;6220;53.580;9.758;2024-03-02T11:48:14;10.00;;;7.57;;
12312;SDS011;6220;53.580;9.758;2024-03-02T11:50:46;11.07;;;8.17;;
12312;SDS011;6220;53.580;9.758;2024-03-02T11:53:13;11.00;;;7.73;;
12312;SDS011;6220;53.580;9.758;2024-03-02T11:55:39;9.10;;;7.53;;
12312;SDS011;6220;53.580;9.758;2024-03-02T11:58:14;10.40;;;7.50;;
12312;SDS011;6220;53.580;9.758;2024-03-02T12:00:45;8.23;;;6.53;;
12312;SDS011;6220;53.580;9.758;2024-03-02T12:03:12;9.00;;;6.83;;
12312;SDS011;6220;53.580;9.758;2024-03-02T12:05:38;7.30;;;6.27;;
12312;SDS011;6220;53.580;9.758;2024-03-02T12:08:04;8.80;;;6.83;;
12312;SDS011;6220;53.580;9.758;2024-03-02T12:10:31;9.17;;;6.40;;
12312;SDS011;6220;53.580;9.758;2024-03-02T12:12:57;8.07;;;6.50;;
12312;SDS011;6220;53.580;9.758;2024-03-02T12:15:25;9.23;;;5.40;;
12312;SDS011;6220;53.580;9.758;2024-03-02T12:17:52;9.03;;;6.03;;
12312;SDS011;6220;53.580;9.758;2024-03-02T12:20:21;7.23;;;5.87;;
12312;SDS011;6220;53.580;9.758;2024-03-02T12:22:49;9.00;;;5.70;;
12312;SDS011;6220;53.580;9.758;2024-03-02T12:25:17;8.70;;;5.67;;
12312;SDS011;6220;53.580;9.758;2024-03-02T12:27:44;7.03;;;5.67;;
12312;SDS011;6220;53.580;9.758;2024-03-02T12:30:11;6.43;;;5.23;;
12312;SDS011;6220;53.580;9.758;2024-03-02T12:32:37;7.87;;;5.70;;
12312;SDS011;6220;53.580;9.758;2024-03-02T12:35:04;6.90;;;5.63;;
12312;SDS011;6220;53.580;9.758;2024-03-02T12:37:30;7.57;;;5.37;;
12312;SDS011;6220;53.580;9.758;2024-03-02T12:39:55;9.47;;;6.17;;
12312;SDS011;6220;53.580;9.758;2024-03-02T12:42:21;8.40;;;6.73;;
12312;SDS011;6220;53.580;9.758;2024-03-02T12:44:46;7.93;;;6.57;;
12312;SDS011;6220;53.580;9.758;2024-03-02T12:47:12;7.97;;;6.00;;
12312;SDS011;6220;53.580;9.758;2024-03-02T12:49:39;6.87;;;5.63;;
12312;SDS011;6220;53.580;9.758;2024-03-02T12:52:05;7.93;;;5.77;;
12312;SDS011;6220;53.580;9.758;2024-03-02T12:54:30;8.10;;;6.17;;
12312;SDS011;6220;53.580;9.758;2024-03-02T12:56:56;7.50;;;6.27;;
12312;SDS011;6220;53.580;9.758;2024-03-02T12:59:23;9.63;;;6.07;;
12312;SDS011;6220;53.580;9.758;2024-03-02T13:01:51;7.07;;;5.67;;
12312;SDS011;6220;53.580;9.758;2024-03-02T13:04:21;7.27;;;5.87;;
12312;SDS011;6220;53.580;9.758;2024-03-02T13:06:49;7.57;;;5.67;;
12312;SDS011;6220;53.580;9.758;2024-03-02T13:09:15;6.87;;;5.60;;
12312;SDS011;6220;53.580;9.758;2024-03-02T13:11:41;5.93;;;4.87;;
12312;SDS011;6220;53.580;9.758;2024-03-02T13:14:07;7.77;;;5.77;;
12312;SDS011;6220;53.580;9.758;2024-03-02T13:16:37;6.70;;;5.47;;
12312;SDS011;6220;53.580;9.758;2024-03-02T13:19:04;7.77;;;5.80;;
12312;SDS011;6220;53.580;9.758;2024-03-02T13:21:29;8.23;;;5.33;;
12312;SDS011;6220;53.580;9.758;2024-03-02T13:23:54;6.00;;;4.70;;
12312;SDS011;6220;53.580;9.758;2024-03-02T13:26:20;7.23;;;6.00;;
12312;SDS011;6220;53.580;9.758;2024-03-02T13:28:45;7.83;;;5.47;;
12312;SDS011;6220;53.580;9.758;2024-03-02T13:31:11;8.37;;;5.30;;
12312;SDS011;6220;53.580;9.758;2024-03-02T13:33:39;8.77;;;5.60;;
12312;SDS011;6220;53.580;9.758;2024-03-02T13:36:04;6.33;;;5.30;;
12312;SDS011;6220;53.580;9.758;2024-03-02T13:38:30;8.90;;;5.20;;
12312;SDS011;6220;53.580;9.758;2024-03-02T13:40:55;7.73;;;5.50;;
12312;SDS011;6220;53.580;9.758;2024-03-02T13:43:20;9.77;;;5.97;;
12312;SDS011;6220;53.580;9.758;2024-03-02T13:45:46;7.03;;;6.10;;
12312;SDS011;6220;53.580;9.758;2024-03-02T13:48:11;6.83;;;5.90;;
12312;SDS011;6220;53.580;9.758;2024-03-02T13:50:36;7.03;;;5.70;;
12312;SDS011;6220;53.580;9.758;2024-03-02T13:53:02;10.03;;;5.90;;
12312;SDS011;6220;53.580;9.758;2024-03-02T13:55:28;7.20;;;5.53;;
12312;SDS011;6220;53.580;9.758;2024-03-02T13:57:53;7.73;;;5.90;;
12312;SDS011;6220;53.580;9.758;2024-03-02T14:00:19;8.93;;;6.10;;
12312;SDS011;6220;53.580;9.758;2024-03-02T14:02:47;6.83;;;6.10;;
12312;SDS011;6220;53.580;9.758;2024-03-02T14:05:15;8.00;;;6.40;;
12312;SDS011;6220;53.580;9.758;2024-03-02T14:07:41;7.17;;;5.70;;
12312;SDS011;6220;53.580;9.758;2024-03-02T14:10:07;6.67;;;5.53;;
12312;SDS011;6220;53.580;9.758;2024-03-02T14:12:33;6.67;;;5.17;;
12312;SDS011;6220;53.580;9.758;2024-03-02T14:14:59;7.87;;;6.00;;
12312;SDS011;6220;53.580;9.758;2024-03-02T14:17:27;5.83;;;5.20;;
12312;SDS011;6220;53.580;9.758;2024-03-02T14:19:52;7.27;;;5.40;;
12312;SDS011;6220;53.580;9.758;2024-03-02T14:22:18;7.20;;;4.77;;
12312;SDS011;6220;53.580;9.758;2024-03-02T14:24:44;6.63;;;5.30;;
12312;SDS011;6220;53.580;9.758;2024-03-02T14:27:09;5.97;;;5.00;;
12312;SDS011;6220;53.580;9.758;2024-03-02T14:29:35;6.83;;;5.50;;
12312;SDS011;6220;53.580;9.758;2024-03-02T14:32:02;5.80;;;5.10;;
12312;SDS011;6220;53.580;9.758;2024-03-02T14:34:28;5.70;;;5.20;;
12312;SDS011;6220;53.580;9.758;2024-03-02T14:36:54;9.07;;;5.80;;
12312;SDS011;6220;53.580;9.758;2024-03-02T14:39:19;9.10;;;7.47;;
12312;SDS011;6220;53.580;9.758;2024-03-02T14:41:44;14.73;;;7.20;;